sensor_id;sensor_type;location;lat;lon;timestamp;P1;durP1;ratioP1;P2;durP2;ratioP2
16965;SDS011;8599;47.852;12.070;2023-02-28T00:01:17;2.50;;;2.30;;
16965;SDS011;8599;47.852;12.070;2023-02-28T00:03:44;4.97;;;2.53;;
16965;SDS011;8599;47.852;12.070;2023-02-28T00:06:11;6.87;;;2.53;;
16965;SDS011;8599;47.852;12.070;2023-02-28T00:08:38;2.67;;;2.37;;
16965;SDS011;8599;47.852;12.070;2023-02-28T00:11:06;2.67;;;2.47;;
16965;SDS011;8599;47.852;12.070;2023-02-28T00:13:36;2.87;;;2.17;;
16965;SDS011;8599;47.852;12.070;2023-02-28T00:16:05;2.77;;;2.17;;
16965;SDS011;8599;47.852;12.070;2023-02-28T00:18:34;2.60;;;2.40;;
16965;SDS011;8599;47.852;12.070;2023-02-28T00:21:01;2.53;;;2.10;;
16965;SDS011;8599;47.852;12.070;2023-02-28T00:23:28;3.50;;;2.37;;
16965;SDS011;8599;47.852;12.070;2023-02-28T00:25:55;3.30;;;2.33;;
16965;SDS011;8599;47.852;12.070;2023-02-28T00:28:22;4.83;;;2.70;;
16965;SDS011;8599;47.852;12.070;2023-02-28T00:30:51;2.13;;;1.93;;
16965;SDS011;8599;47.852;12.070;2023-02-28T00:33:17;3.23;;;2.67;;
16965;SDS011;8599;47.852;12.070;2023-02-28T00:35:44;2.97;;;2.33;;
16965;SDS011;8599;47.852;12.070;2023-02-28T00:38:12;2.90;;;2.57;;
16965;SDS011;8599;47.852;12.070;2023-02-28T00:40:38;2.30;;;2.10;;
16965;SDS011;8599;47.852;12.070;2023-02-28T00:43:05;2.57;;;2.33;;
16965;SDS011;8599;47.852;12.070;2023-02-28T00:45:32;3.20;;;2.10;;
16965;SDS011;8599;47.852;12.070;2023-02-28T00:48:00;3.53;;;2.60;;
16965;SDS011;8599;47.852;12.070;2023-02-28T00:50:27;2.73;;;2.03;;
16965;SDS011;8599;47.852;12.070;2023-02-28T00:52:54;3.23;;;2.13;;
16965;SDS011;8599;47.852;12.070;2023-02-28T00:55:21;4.30;;;2.93;;
16965;SDS011;8599;47.852;12.070;2023-02-28T00:57:48;2.60;;;2.30;;
16965;SDS011;8599;47.852;12.070;2023-02-28T01:00:15;2.80;;;2.60;;
16965;SDS011;8599;47.852;12.070;2023-02-28T01:02:42;2.60;;;2.33;;
16965;SDS011;8599;47.852;12.070;2023-02-28T01:05:10;4.23;;;2.60;;
16965;SDS011;8599;47.852;12.070;2023-02-28T01:07:37;3.80;;;2.67;;
16965;SDS011;8599;47.852;12.070;2023-02-28T01:10:04;3.33;;;2.70;;
16965;SDS011;8599;47.852;12.070;2023-02-28T01:12:31;2.60;;;2.30;;
16965;SDS011;8599;47.852;12.070;2023-02-28T01:14:58;2.50;;;2.20;;
16965;SDS011;8599;47.852;12.070;2023-02-28T01:17:25;6.33;;;2.90;;
16965;SDS011;8599;47.852;12.070;2023-02-28T01:19:52;3.77;;;2.80;;
16965;SDS011;8599;47.852;12.070;2023-02-28T01:22:21;3.43;;;2.57;;
16965;SDS011;8599;47.852;12.070;2023-02-28T01:24:48;2.50;;;2.30;;
16965;SDS011;8599;47.852;12.070;2023-02-28T01:27:15;2.40;;;2.20;;
16965;SDS011;8599;47.852;12.070;2023-02-28T01:29:42;2.87;;;2.63;;
16965;SDS011;8599;47.852;12.070;2023-02-28T01:32:08;3.00;;;2.60;;
16965;SDS011;8599;47.852;12.070;2023-02-28T01:34:35;2.83;;;2.10;;
16965;SDS011;8599;47.852;12.070;2023-02-28T01:37:02;6.37;;;3.30;;
16965;SDS011;8599;47.852;12.070;2023-02-28T01:39:30;6.03;;;2.63;;
16965;SDS011;8599;47.852;12.070;2023-02-28T01:41:57;2.97;;;2.20;;
16965;SDS011;8599;47.852;12.070;2023-02-28T01:47:24;2.60;;;2.40;;
16965;SDS011;8599;47.852;12.070;2023-02-28T01:49:53;4.03;;;2.67;;
16965;SDS011;8599;47.852;12.070;2023-02-28T01:52:21;3.00;;;2.73;;
16965;SDS011;8599;47.852;12.070;2023-02-28T01:54:52;5.07;;;2.97;;
16965;SDS011;8599;47.852;12.070;2023-02-28T01:57:21;5.47;;;2.80;;
16965;SDS011;8599;47.852;12.070;2023-02-28T01:59:54;2.83;;;2.63;;
16965;SDS011;8599;47.852;12.070;2023-02-28T02:02:24;3.93;;;3.00;;
16965;SDS011;8599;47.852;12.070;2023-02-28T02:04:54;3.40;;;2.80;;
16965;SDS011;8599;47.852;12.070;2023-02-28T02:07:23;3.70;;;2.47;;
16965;SDS011;8599;47.852;12.070;2023-02-28T02:10:00;2.53;;;2.33;;
16965;SDS011;8599;47.852;12.070;2023-02-28T02:12:32;2.67;;;2.43;;
16965;SDS011;8599;47.852;12.070;2023-02-28T02:15:15;2.87;;;2.57;;
16965;SDS011;8599;47.852;12.070;2023-02-28T02:17:46;4.77;;;3.00;;
16965;SDS011;8599;47.852;12.070;2023-02-28T02:20:35;3.80;;;2.80;;
16965;SDS011;8599;47.852;12.070;2023-02-28T02:32:11;3.07;;;2.33;;
16965;SDS011;8599;47.852;12.070;2023-02-28T02:34:57;6.17;;;2.80;;
16965;SDS011;8599;47.852;12.070;2023-02-28T02:37:32;3.13;;;2.40;;
16965;SDS011;8599;47.852;12.070;2023-02-28T02:40:07;3.10;;;2.63;;
16965;SDS011;8599;47.852;12.070;2023-02-28T02:42:39;2.57;;;2.37;;
16965;SDS011;8599;47.852;12.070;2023-02-28T02:45:12;3.03;;;2.67;;
16965;SDS011;8599;47.852;12.070;2023-02-28T02:47:45;5.07;;;2.53;;
16965;SDS011;8599;47.852;12.070;2023-02-28T02:50:15;3.53;;;3.07;;
16965;SDS011;8599;47.852;12.070;2023-02-28T02:52:46;2.73;;;2.50;;
16965;SDS011;8599;47.852;12.070;2023-02-28T02:55:17;3.27;;;2.83;;
16965;SDS011;8599;47.852;12.070;2023-02-28T02:57:47;2.90;;;2.47;;
16965;SDS011;8599;47.852;12.070;2023-02-28T03:00:18;3.67;;;2.80;;
16965;SDS011;8599;47.852;12.070;2023-02-28T03:02:49;4.20;;;2.90;;
16965;SDS011;8599;47.852;12.070;2023-02-28T03:05:21;4.60;;;3.30;;
16965;SDS011;8599;47.852;12.070;2023-02-28T03:07:51;3.20;;;2.90;;
16965;SDS011;8599;47.852;12.070;2023-02-28T03:10:28;2.93;;;2.70;;
16965;SDS011;8599;47.852;12.070;2023-02-28T03:13:24;4.80;;;3.30;;
16965;SDS011;8599;47.852;12.070;2023-02-28T03:16:22;4.93;;;3.30;;
16965;SDS011;8599;47.852;12.070;2023-02-28T03:24:52;3.63;;;3.07;;
16965;SDS011;8599;47.852;12.070;2023-02-28T03:27:24;3.37;;;3.07;;
16965;SDS011;8599;47.852;12.070;2023-02-28T03:29:57;3.77;;;3.33;;
16965;SDS011;8599;47.852;12.070;2023-02-28T03:32:28;3.63;;;3.13;;
16965;SDS011;8599;47.852;12.070;2023-02-28T03:35:01;8.17;;;3.47;;
16965;SDS011;8599;47.852;12.070;2023-02-28T03:37:35;5.33;;;3.70;;
16965;SDS011;8599;47.852;12.070;2023-02-28T03:40:07;9.43;;;3.47;;
16965;SDS011;8599;47.852;12.070;2023-02-28T03:42:39;7.10;;;3.90;;
16965;SDS011;8599;47.852;12.070;2023-02-28T03:45:10;4.30;;;3.40;;
16965;SDS011;8599;47.852;12.070;2023-02-28T03:47:40;4.73;;;3.77;;
16965;SDS011;8599;47.852;12.070;2023-02-28T03:50:13;5.87;;;3.70;;
16965;SDS011;8599;47.852;12.070;2023-02-28T03:52:47;7.60;;;3.80;;
16965;SDS011;8599;47.852;12.070;2023-02-28T03:55:16;3.63;;;3.33;;
16965;SDS011;8599;47.852;12.070;2023-02-28T03:57:48;4.73;;;3.97;;
16965;SDS011;8599;47.852;12.070;2023-02-28T04:00:25;6.80;;;4.23;;
16965;SDS011;8599;47.852;12.070;2023-02-28T04:02:55;5.67;;;3.97;;
16965;SDS011;8599;47.852;12.070;2023-02-28T04:05:23;3.37;;;3.07;;
16965;SDS011;8599;47.852;12.070;2023-02-28T04:07:52;4.80;;;3.67;;
16965;SDS011;8599;47.852;12.070;2023-02-28T04:10:19;12.97;;;3.80;;
16965;SDS011;8599;47.852;12.070;2023-02-28T04:12:46;5.30;;;3.80;;
16965;SDS011;8599;47.852;12.070;2023-02-28T04:15:13;4.20;;;3.27;;
16965;SDS011;8599;47.852;12.070;2023-02-28T04:17:40;11.30;;;3.40;;
16965;SDS011;8599;47.852;12.070;2023-02-28T04:20:07;3.77;;;3.27;;
16965;SDS011;8599;47.852;12.070;2023-02-28T04:22:35;5.37;;;3.50;;
16965;SDS011;8599;47.852;12.070;2023-02-28T04:25:05;8.73;;;3.30;;
16965;SDS011;8599;47.852;12.070;2023-02-28T04:27:32;5.00;;;4.23;;
16965;SDS011;8599;47.852;12.070;2023-02-28T04:29:59;4.90;;;3.03;;
16965;SDS011;8599;47.852;12.070;2023-02-28T04:32:26;9.77;;;4.00;;
16965;SDS011;8599;47.852;12.070;2023-02-28T04:34:53;3.70;;;3.40;;
16965;SDS011;8599;47.852;12.070;2023-02-28T04:37:19;6.77;;;4.10;;
16965;SDS011;8599;47.852;12.070;2023-02-28T04:39:52;4.13;;;3.73;;
16965;SDS011;8599;47.852;12.070;2023-02-28T04:42:21;4.40;;;4.00;;
16965;SDS011;8599;47.852;12.070;2023-02-28T04:44:48;7.03;;;3.77;;
16965;SDS011;8599;47.852;12.070;2023-02-28T04:47:14;4.73;;;3.80;;
16965;SDS011;8599;47.852;12.070;2023-02-28T04:49:41;3.97;;;3.53;;
16965;SDS011;8599;47.852;12.070;2023-02-28T04:52:08;4.20;;;3.40;;
16965;SDS011;8599;47.852;12.070;2023-02-28T04:54:35;8.57;;;4.10;;
16965;SDS011;8599;47.852;12.070;2023-02-28T04:57:03;5.07;;;4.03;;
16965;SDS011;8599;47.852;12.070;2023-02-28T04:59:32;6.77;;;3.83;;
16965;SDS011;8599;47.852;12.070;2023-02-28T05:01:59;12.87;;;4.27;;
16965;SDS011;8599;47.852;12.070;2023-02-28T05:04:28;7.10;;;3.73;;
16965;SDS011;8599;47.852;12.070;2023-02-28T05:06:59;7.87;;;3.80;;
16965;SDS011;8599;47.852;12.070;2023-02-28T05:09:26;4.47;;;2.93;;
16965;SDS011;8599;47.852;12.070;2023-02-28T05:11:53;4.53;;;3.57;;
16965;SDS011;8599;47.852;12.070;2023-02-28T05:14:20;4.13;;;3.50;;
16965;SDS011;8599;47.852;12.070;2023-02-28T05:16:48;4.27;;;3.47;;
16965;SDS011;8599;47.852;12.070;2023-02-28T05:19:15;5.43;;;3.43;;
16965;SDS011;8599;47.852;12.070;2023-02-28T05:21:48;4.40;;;4.00;;
16965;SDS011;8599;47.852;12.070;2023-02-28T05:24:16;6.77;;;3.70;;
16965;SDS011;8599;47.852;12.070;2023-02-28T05:26:47;6.60;;;3.87;;
16965;SDS011;8599;47.852;12.070;2023-02-28T05:29:15;8.93;;;3.87;;
16965;SDS011;8599;47.852;12.070;2023-02-28T05:31:42;9.90;;;4.53;;
16965;SDS011;8599;47.852;12.070;2023-02-28T05:34:10;6.47;;;4.70;;
16965;SDS011;8599;47.852;12.070;2023-02-28T05:36:37;6.47;;;4.50;;
16965;SDS011;8599;47.852;12.070;2023-02-28T05:39:05;5.20;;;4.33;;
16965;SDS011;8599;47.852;12.070;2023-02-28T05:41:37;7.70;;;4.77;;
16965;SDS011;8599;47.852;12.070;2023-02-28T05:44:05;7.70;;;4.80;;
16965;SDS011;8599;47.852;12.070;2023-02-28T05:46:32;9.60;;;6.20;;
16965;SDS011;8599;47.852;12.070;2023-02-28T05:48:58;8.30;;;5.93;;
16965;SDS011;8599;47.852;12.070;2023-02-28T05:51:27;6.10;;;5.23;;
16965;SDS011;8599;47.852;12.070;2023-02-28T05:53:54;5.30;;;4.27;;
16965;SDS011;8599;47.852;12.070;2023-02-28T05:56:24;10.33;;;5.20;;
16965;SDS011;8599;47.852;12.070;2023-02-28T05:58:50;9.70;;;5.30;;
16965;SDS011;8599;47.852;12.070;2023-02-28T06:01:22;11.10;;;5.90;;
16965;SDS011;8599;47.852;12.070;2023-02-28T06:03:50;11.77;;;6.10;;
16965;SDS011;8599;47.852;12.070;2023-02-28T06:06:17;8.70;;;6.03;;
16965;SDS011;8599;47.852;12.070;2023-02-28T06:08:45;13.83;;;5.90;;
16965;SDS011;8599;47.852;12.070;2023-02-28T06:11:14;21.17;;;5.80;;
16965;SDS011;8599;47.852;12.070;2023-02-28T06:13:41;9.00;;;5.83;;
16965;SDS011;8599;47.852;12.070;2023-02-28T06:16:07;9.30;;;5.17;;
16965;SDS011;8599;47.852;12.070;2023-02-28T06:18:36;13.57;;;6.13;;
16965;SDS011;8599;47.852;12.070;2023-02-28T06:21:03;15.00;;;5.70;;
16965;SDS011;8599;47.852;12.070;2023-02-28T06:23:30;10.57;;;5.87;;
16965;SDS011;8599;47.852;12.070;2023-02-28T06:25:58;11.87;;;5.90;;
16965;SDS011;8599;47.852;12.070;2023-02-28T06:28:25;12.40;;;6.43;;
16965;SDS011;8599;47.852;12.070;2023-02-28T06:30:52;16.13;;;5.87;;
16965;SDS011;8599;47.852;12.070;2023-02-28T06:33:19;10.50;;;5.70;;
16965;SDS011;8599;47.852;12.070;2023-02-28T06:35:46;12.60;;;5.53;;
16965;SDS011;8599;47.852;12.070;2023-02-28T06:38:13;8.37;;;5.00;;
16965;SDS011;8599;47.852;12.070;2023-02-28T06:40:40;10.03;;;5.70;;
16965;SDS011;8599;47.852;12.070;2023-02-28T06:43:10;9.87;;;5.40;;
16965;SDS011;8599;47.852;12.070;2023-02-28T06:45:40;9.37;;;6.27;;
16965;SDS011;8599;47.852;12.070;2023-02-28T06:48:08;11.27;;;6.00;;
16965;SDS011;8599;47.852;12.070;2023-02-28T06:50:35;8.80;;;5.57;;
16965;SDS011;8599;47.852;12.070;2023-02-28T06:53:02;9.00;;;5.40;;
16965;SDS011;8599;47.852;12.070;2023-02-28T06:55:29;10.13;;;5.83;;
16965;SDS011;8599;47.852;12.070;2023-02-28T06:57:56;8.03;;;5.07;;
16965;SDS011;8599;47.852;12.070;2023-02-28T07:00:25;11.20;;;4.50;;
16965;SDS011;8599;47.852;12.070;2023-02-28T07:02:51;8.60;;;5.10;;
16965;SDS011;8599;47.852;12.070;2023-02-28T07:05:20;6.90;;;4.43;;
16965;SDS011;8599;47.852;12.070;2023-02-28T07:07:46;11.77;;;5.80;;
16965;SDS011;8599;47.852;12.070;2023-02-28T07:10:13;10.67;;;5.30;;
16965;SDS011;8599;47.852;12.070;2023-02-28T07:12:41;7.70;;;5.77;;
16965;SDS011;8599;47.852;12.070;2023-02-28T07:15:09;10.50;;;7.67;;
16965;SDS011;8599;47.852;12.070;2023-02-28T07:17:38;12.67;;;6.53;;
16965;SDS011;8599;47.852;12.070;2023-02-28T07:20:05;9.07;;;6.03;;
16965;SDS011;8599;47.852;12.070;2023-02-28T07:22:32;10.93;;;5.53;;
16965;SDS011;8599;47.852;12.070;2023-02-28T07:24:59;10.17;;;5.43;;
16965;SDS011;8599;47.852;12.070;2023-02-28T07:27:26;14.00;;;6.63;;
16965;SDS011;8599;47.852;12.070;2023-02-28T07:29:53;12.57;;;6.33;;
16965;SDS011;8599;47.852;12.070;2023-02-28T07:32:20;8.47;;;5.77;;
16965;SDS011;8599;47.852;12.070;2023-02-28T07:34:48;11.23;;;5.97;;
16965;SDS011;8599;47.852;12.070;2023-02-28T07:37:14;11.97;;;6.40;;
16965;SDS011;8599;47.852;12.070;2023-02-28T07:39:41;11.63;;;5.80;;
16965;SDS011;8599;47.852;12.070;2023-02-28T07:42:08;14.27;;;5.60;;
16965;SDS011;8599;47.852;12.070;2023-02-28T07:44:37;11.60;;;5.53;;
16965;SDS011;8599;47.852;12.070;2023-02-28T07:47:05;7.87;;;6.03;;
16965;SDS011;8599;47.852;12.070;2023-02-28T07:49:33;8.33;;;6.53;;
16965;SDS011;8599;47.852;12.070;2023-02-28T07:52:02;7.87;;;6.17;;
16965;SDS011;8599;47.852;12.070;2023-02-28T07:54:30;10.17;;;6.93;;
16965;SDS011;8599;47.852;12.070;2023-02-28T07:56:57;10.47;;;6.37;;
16965;SDS011;8599;47.852;12.070;2023-02-28T07:59:24;8.00;;;6.00;;
16965;SDS011;8599;47.852;12.070;2023-02-28T08:01:51;11.03;;;6.17;;
16965;SDS011;8599;47.852;12.070;2023-02-28T08:04:18;8.17;;;6.13;;
16965;SDS011;8599;47.852;12.070;2023-02-28T08:06:45;8.70;;;5.90;;
16965;SDS011;8599;47.852;12.070;2023-02-28T08:09:13;7.03;;;5.77;;
16965;SDS011;8599;47.852;12.070;2023-02-28T08:11:40;10.37;;;6.10;;
16965;SDS011;8599;47.852;12.070;2023-02-28T08:14:07;11.30;;;7.10;;
16965;SDS011;8599;47.852;12.070;2023-02-28T08:16:34;14.07;;;7.20;;
16965;SDS011;8599;47.852;12.070;2023-02-28T08:19:01;8.60;;;6.13;;
16965;SDS011;8599;47.852;12.070;2023-02-28T08:21:27;11.97;;;6.70;;
16965;SDS011;8599;47.852;12.070;2023-02-28T08:23:54;11.10;;;7.20;;
16965;SDS011;8599;47.852;12.070;2023-02-28T08:26:23;10.60;;;6.83;;
16965;SDS011;8599;47.852;12.070;2023-02-28T08:28:49;10.97;;;7.20;;
16965;SDS011;8599;47.852;12.070;2023-02-28T08:31:17;10.50;;;7.03;;
16965;SDS011;8599;47.852;12.070;2023-02-28T08:33:44;9.87;;;6.90;;
16965;SDS011;8599;47.852;12.070;2023-02-28T08:36:13;17.37;;;7.73;;
16965;SDS011;8599;47.852;12.070;2023-02-28T08:38:40;9.60;;;7.50;;
16965;SDS011;8599;47.852;12.070;2023-02-28T08:41:09;12.17;;;8.13;;
16965;SDS011;8599;47.852;12.070;2023-02-28T08:43:38;15.57;;;8.87;;
16965;SDS011;8599;47.852;12.070;2023-02-28T08:46:06;16.93;;;8.57;;
16965;SDS011;8599;47.852;12.070;2023-02-28T08:48:33;10.80;;;8.17;;
16965;SDS011;8599;47.852;12.070;2023-02-28T08:51:03;13.57;;;8.37;;
16965;SDS011;8599;47.852;12.070;2023-02-28T08:53:31;12.57;;;8.53;;
16965;SDS011;8599;47.852;12.070;2023-02-28T08:55:59;12.20;;;8.17;;
16965;SDS011;8599;47.852;12.070;2023-02-28T08:58:27;10.43;;;8.30;;
16965;SDS011;8599;47.852;12.070;2023-02-28T09:00:55;16.10;;;8.63;;
16965;SDS011;8599;47.852;12.070;2023-02-28T09:03:23;16.50;;;9.37;;
16965;SDS011;8599;47.852;12.070;2023-02-28T09:05:52;11.40;;;8.47;;
16965;SDS011;8599;47.852;12.070;2023-02-28T09:08:24;15.30;;;9.03;;
16965;SDS011;8599;47.852;12.070;2023-02-28T09:10:52;14.47;;;9.10;;
16965;SDS011;8599;47.852;12.070;2023-02-28T09:13:19;14.43;;;9.13;;
16965;SDS011;8599;47.852;12.070;2023-02-28T09:15:46;16.80;;;9.87;;
16965;SDS011;8599;47.852;12.070;2023-02-28T09:18:14;19.47;;;11.03;;
16965;SDS011;8599;47.852;12.070;2023-02-28T09:20:42;12.03;;;10.20;;
16965;SDS011;8599;47.852;12.070;2023-02-28T09:23:10;21.23;;;10.63;;
16965;SDS011;8599;47.852;12.070;2023-02-28T09:25:38;15.23;;;10.30;;
16965;SDS011;8599;47.852;12.070;2023-02-28T09:28:11;16.80;;;10.43;;
16965;SDS011;8599;47.852;12.070;2023-02-28T09:30:39;14.23;;;10.10;;
16965;SDS011;8599;47.852;12.070;2023-02-28T09:33:06;20.50;;;11.10;;
16965;SDS011;8599;47.852;12.070;2023-02-28T09:35:34;20.40;;;10.37;;
16965;SDS011;8599;47.852;12.070;2023-02-28T09:38:02;14.47;;;9.47;;
16965;SDS011;8599;47.852;12.070;2023-02-28T09:40:29;17.97;;;10.83;;
16965;SDS011;8599;47.852;12.070;2023-02-28T09:42:57;17.13;;;10.97;;
16965;SDS011;8599;47.852;12.070;2023-02-28T09:45:26;14.10;;;9.97;;
16965;SDS011;8599;47.852;12.070;2023-02-28T09:47:58;17.70;;;10.20;;
16965;SDS011;8599;47.852;12.070;2023-02-28T09:50:30;21.07;;;10.93;;
16965;SDS011;8599;47.852;12.070;2023-02-28T09:53:02;16.57;;;10.83;;
16965;SDS011;8599;47.852;12.070;2023-02-28T09:55:37;13.33;;;9.33;;
16965;SDS011;8599;47.852;12.070;2023-02-28T09:58:09;14.77;;;9.97;;
16965;SDS011;8599;47.852;12.070;2023-02-28T10:00:46;15.80;;;9.90;;
16965;SDS011;8599;47.852;12.070;2023-02-28T10:03:25;16.97;;;11.03;;
16965;SDS011;8599;47.852;12.070;2023-02-28T10:05:56;20.73;;;13.20;;
16965;SDS011;8599;47.852;12.070;2023-02-28T10:08:31;14.93;;;10.23;;
16965;SDS011;8599;47.852;12.070;2023-02-28T10:11:07;21.17;;;10.33;;
16965;SDS011;8599;47.852;12.070;2023-02-28T10:13:48;18.57;;;11.57;;
16965;SDS011;8599;47.852;12.070;2023-02-28T10:16:21;15.13;;;11.03;;
16965;SDS011;8599;47.852;12.070;2023-02-28T10:19:02;16.80;;;10.50;;
16965;SDS011;8599;47.852;12.070;2023-02-28T10:21:34;19.67;;;12.07;;
16965;SDS011;8599;47.852;12.070;2023-02-28T10:24:10;18.03;;;11.73;;
16965;SDS011;8599;47.852;12.070;2023-02-28T10:26:43;18.63;;;10.47;;
16965;SDS011;8599;47.852;12.070;2023-02-28T10:29:11;20.87;;;10.80;;
16965;SDS011;8599;47.852;12.070;2023-02-28T10:31:38;13.77;;;10.07;;
16965;SDS011;8599;47.852;12.070;2023-02-28T10:34:05;18.23;;;11.43;;
16965;SDS011;8599;47.852;12.070;2023-02-28T10:36:32;17.83;;;10.43;;
16965;SDS011;8599;47.852;12.070;2023-02-28T10:38:59;18.03;;;11.10;;
16965;SDS011;8599;47.852;12.070;2023-02-28T10:41:28;18.23;;;11.33;;
16965;SDS011;8599;47.852;12.070;2023-02-28T10:44:13;15.20;;;10.43;;
16965;SDS011;8599;47.852;12.070;2023-02-28T10:46:43;13.57;;;9.93;;
16965;SDS011;8599;47.852;12.070;2023-02-28T10:49:13;16.67;;;10.60;;
16965;SDS011;8599;47.852;12.070;2023-02-28T10:51:43;16.30;;;10.40;;
16965;SDS011;8599;47.852;12.070;2023-02-28T10:54:16;18.20;;;10.80;;
16965;SDS011;8599;47.852;12.070;2023-02-28T10:56:55;16.80;;;10.07;;
16965;SDS011;8599;47.852;12.070;2023-02-28T10:59:33;15.13;;;10.63;;
16965;SDS011;8599;47.852;12.070;2023-02-28T11:02:00;18.83;;;10.70;;
16965;SDS011;8599;47.852;12.070;2023-02-28T11:04:36;14.53;;;10.10;;
16965;SDS011;8599;47.852;12.070;2023-02-28T11:07:05;18.17;;;11.03;;
16965;SDS011;8599;47.852;12.070;2023-02-28T11:09:44;14.20;;;10.27;;
16965;SDS011;8599;47.852;12.070;2023-02-28T11:12:20;17.47;;;11.57;;
16965;SDS011;8599;47.852;12.070;2023-02-28T11:14:49;17.50;;;10.47;;
16965;SDS011;8599;47.852;12.070;2023-02-28T11:17:20;17.50;;;10.37;;
16965;SDS011;8599;47.852;12.070;2023-02-28T11:19:49;16.27;;;10.17;;
16965;SDS011;8599;47.852;12.070;2023-02-28T11:22:19;18.27;;;10.20;;
16965;SDS011;8599;47.852;12.070;2023-02-28T11:24:50;18.97;;;9.87;;
16965;SDS011;8599;47.852;12.070;2023-02-28T11:27:39;18.53;;;11.60;;
16965;SDS011;8599;47.852;12.070;2023-02-28T11:33:00;26.17;;;10.47;;
16965;SDS011;8599;47.852;12.070;2023-02-28T11:35:44;19.70;;;9.93;;
16965;SDS011;8599;47.852;12.070;2023-02-28T11:38:12;22.60;;;10.03;;
16965;SDS011;8599;47.852;12.070;2023-02-28T11:40:41;15.93;;;9.50;;
16965;SDS011;8599;47.852;12.070;2023-02-28T11:43:18;14.50;;;9.87;;
16965;SDS011;8599;47.852;12.070;2023-02-28T11:45:55;17.17;;;9.77;;
16965;SDS011;8599;47.852;12.070;2023-02-28T11:48:42;14.07;;;8.87;;
16965;SDS011;8599;47.852;12.070;2023-02-28T11:51:15;14.00;;;9.07;;
16965;SDS011;8599;47.852;12.070;2023-02-28T11:53:55;17.13;;;9.20;;
16965;SDS011;8599;47.852;12.070;2023-02-28T11:56:32;12.97;;;9.40;;
16965;SDS011;8599;47.852;12.070;2023-02-28T11:59:08;17.43;;;9.87;;
16965;SDS011;8599;47.852;12.070;2023-02-28T12:01:55;17.33;;;10.90;;
16965;SDS011;8599;47.852;12.070;2023-02-28T12:04:42;17.87;;;10.37;;
16965;SDS011;8599;47.852;12.070;2023-02-28T12:07:21;15.00;;;9.73;;
16965;SDS011;8599;47.852;12.070;2023-02-28T12:09:59;13.90;;;9.47;;
16965;SDS011;8599;47.852;12.070;2023-02-28T12:12:36;12.40;;;9.40;;
16965;SDS011;8599;47.852;12.070;2023-02-28T12:15:26;14.20;;;8.97;;
16965;SDS011;8599;47.852;12.070;2023-02-28T12:18:03;15.80;;;10.60;;
16965;SDS011;8599;47.852;12.070;2023-02-28T12:20:42;12.97;;;9.53;;
16965;SDS011;8599;47.852;12.070;2023-02-28T12:23:19;13.80;;;9.47;;
16965;SDS011;8599;47.852;12.070;2023-02-28T12:26:00;16.43;;;9.30;;
16965;SDS011;8599;47.852;12.070;2023-02-28T12:28:35;12.87;;;9.47;;
16965;SDS011;8599;47.852;12.070;2023-02-28T12:31:10;14.27;;;9.47;;
16965;SDS011;8599;47.852;12.070;2023-02-28T12:33:43;12.37;;;8.90;;
16965;SDS011;8599;47.852;12.070;2023-02-28T12:36:14;19.10;;;10.30;;
16965;SDS011;8599;47.852;12.070;2023-02-28T12:38:47;19.90;;;10.00;;
16965;SDS011;8599;47.852;12.070;2023-02-28T12:41:18;16.87;;;9.53;;
16965;SDS011;8599;47.852;12.070;2023-02-28T12:43:50;13.13;;;9.80;;
16965;SDS011;8599;47.852;12.070;2023-02-28T12:46:23;14.87;;;10.23;;
16965;SDS011;8599;47.852;12.070;2023-02-28T12:48:54;14.60;;;9.83;;
16965;SDS011;8599;47.852;12.070;2023-02-28T12:51:23;21.83;;;10.17;;
16965;SDS011;8599;47.852;12.070;2023-02-28T12:53:54;11.90;;;9.33;;
16965;SDS011;8599;47.852;12.070;2023-02-28T12:56:30;11.83;;;8.97;;
16965;SDS011;8599;47.852;12.070;2023-02-28T12:59:06;17.50;;;10.40;;
16965;SDS011;8599;47.852;12.070;2023-02-28T13:01:50;13.97;;;9.53;;
16965;SDS011;8599;47.852;12.070;2023-02-28T13:04:37;12.77;;;9.70;;
16965;SDS011;8599;47.852;12.070;2023-02-28T13:10:46;18.00;;;9.90;;
16965;SDS011;8599;47.852;12.070;2023-02-28T13:13:19;15.90;;;9.97;;
16965;SDS011;8599;47.852;12.070;2023-02-28T13:15:58;13.03;;;9.83;;
16965;SDS011;8599;47.852;12.070;2023-02-28T13:18:29;13.37;;;9.50;;
16965;SDS011;8599;47.852;12.070;2023-02-28T13:20:58;12.90;;;8.97;;
16965;SDS011;8599;47.852;12.070;2023-02-28T13:23:40;13.73;;;9.60;;
16965;SDS011;8599;47.852;12.070;2023-02-28T13:29:30;12.33;;;9.20;;
16965;SDS011;8599;47.852;12.070;2023-02-28T13:35:13;12.37;;;9.30;;
16965;SDS011;8599;47.852;12.070;2023-02-28T13:38:03;13.90;;;10.00;;
16965;SDS011;8599;47.852;12.070;2023-02-28T13:40:41;25.93;;;10.53;;
16965;SDS011;8599;47.852;12.070;2023-02-28T13:43:08;14.60;;;10.40;;
16965;SDS011;8599;47.852;12.070;2023-02-28T13:45:35;15.23;;;10.70;;
16965;SDS011;8599;47.852;12.070;2023-02-28T13:48:04;14.60;;;9.77;;
16965;SDS011;8599;47.852;12.070;2023-02-28T13:50:43;21.50;;;10.43;;
16965;SDS011;8599;47.852;12.070;2023-02-28T13:56:02;16.70;;;10.03;;
16965;SDS011;8599;47.852;12.070;2023-02-28T13:58:41;12.30;;;9.23;;
16965;SDS011;8599;47.852;12.070;2023-02-28T14:01:16;13.00;;;9.67;;
16965;SDS011;8599;47.852;12.070;2023-02-28T14:04:00;16.03;;;9.90;;
16965;SDS011;8599;47.852;12.070;2023-02-28T14:06:52;21.37;;;10.30;;
16965;SDS011;8599;47.852;12.070;2023-02-28T14:09:21;15.37;;;10.30;;
16965;SDS011;8599;47.852;12.070;2023-02-28T14:11:51;14.07;;;10.67;;
16965;SDS011;8599;47.852;12.070;2023-02-28T14:17:20;17.37;;;10.67;;
16965;SDS011;8599;47.852;12.070;2023-02-28T14:19:48;15.17;;;10.53;;
16965;SDS011;8599;47.852;12.070;2023-02-28T14:22:19;20.90;;;10.37;;
16965;SDS011;8599;47.852;12.070;2023-02-28T14:25:11;17.57;;;10.90;;
16965;SDS011;8599;47.852;12.070;2023-02-28T14:27:45;13.60;;;9.77;;
16965;SDS011;8599;47.852;12.070;2023-02-28T14:30:29;20.53;;;10.30;;
16965;SDS011;8599;47.852;12.070;2023-02-28T14:33:25;14.90;;;10.00;;
16965;SDS011;8599;47.852;12.070;2023-02-28T14:36:01;17.53;;;10.47;;
16965;SDS011;8599;47.852;12.070;2023-02-28T14:38:35;12.83;;;9.27;;
16965;SDS011;8599;47.852;12.070;2023-02-28T14:41:12;12.87;;;9.17;;
16965;SDS011;8599;47.852;12.070;2023-02-28T14:43:54;14.80;;;10.27;;
16965;SDS011;8599;47.852;12.070;2023-02-28T14:46:22;18.97;;;10.57;;
16965;SDS011;8599;47.852;12.070;2023-02-28T14:48:53;12.80;;;9.53;;
16965;SDS011;8599;47.852;12.070;2023-02-28T14:51:21;17.17;;;11.20;;
16965;SDS011;8599;47.852;12.070;2023-02-28T14:53:52;16.53;;;10.17;;
16965;SDS011;8599;47.852;12.070;2023-02-28T14:56:25;12.03;;;9.57;;
16965;SDS011;8599;47.852;12.070;2023-02-28T14:58:56;14.40;;;10.13;;
16965;SDS011;8599;47.852;12.070;2023-02-28T15:01:23;16.87;;;10.63;;
16965;SDS011;8599;47.852;12.070;2023-02-28T15:03:59;14.87;;;9.33;;
16965;SDS011;8599;47.852;12.070;2023-02-28T15:06:28;17.73;;;10.03;;
16965;SDS011;8599;47.852;12.070;2023-02-28T15:09:14;15.03;;;10.23;;
16965;SDS011;8599;47.852;12.070;2023-02-28T15:11:45;19.33;;;9.77;;
16965;SDS011;8599;47.852;12.070;2023-02-28T15:14:15;14.03;;;9.50;;
16965;SDS011;8599;47.852;12.070;2023-02-28T15:16:45;17.73;;;10.40;;
16965;SDS011;8599;47.852;12.070;2023-02-28T15:19:18;14.40;;;10.53;;
16965;SDS011;8599;47.852;12.070;2023-02-28T15:21:48;13.27;;;10.20;;
16965;SDS011;8599;47.852;12.070;2023-02-28T15:24:21;20.13;;;12.20;;
16965;SDS011;8599;47.852;12.070;2023-02-28T15:26:53;18.73;;;11.33;;
16965;SDS011;8599;47.852;12.070;2023-02-28T15:29:23;15.83;;;11.03;;
16965;SDS011;8599;47.852;12.070;2023-02-28T15:31:55;13.43;;;10.73;;
16965;SDS011;8599;47.852;12.070;2023-02-28T15:34:27;21.57;;;9.43;;
16965;SDS011;8599;47.852;12.070;2023-02-28T15:36:59;16.33;;;10.13;;